sensor_id;sensor_type;location;lat;lon;timestamp;temperature;humidity
18191;DHT22;47004;51.366;12.348;2023-05-08T00:01:06;7.60;99.90
18191;DHT22;47004;51.366;12.348;2023-05-08T00:03:08;7.60;99.90
18191;DHT22;47004;51.366;12.348;2023-05-08T00:05:09;7.60;99.90
18191;DHT22;47004;51.366;12.348;2023-05-08T00:07:11;7.60;99.90
18191;DHT22;47004;51.366;12.348;2023-05-08T00:09:13;7.60;99.90
18191;DHT22;47004;51.366;12.348;2023-05-08T00:11:17;7.50;99.90
18191;DHT22;47004;51.366;12.348;2023-05-08T00:13:19;7.50;99.90
18191;DHT22;47004;51.366;12.348;2023-05-08T00:15:21;7.50;99.90
18191;DHT22;47004;51.366;12.348;2023-05-08T00:17:24;7.50;99.90
18191;DHT22;47004;51.366;12.348;2023-05-08T00:19:26;7.50;99.90
18191;DHT22;47004;51.366;12.348;2023-05-08T00:21:28;7.50;99.90
18191;DHT22;47004;51.366;12.348;2023-05-08T00:23:31;7.50;99.90
18191;DHT22;47004;51.366;12.348;2023-05-08T00:25:33;7.40;99.90
18191;DHT22;47004;51.366;12.348;2023-05-08T00:27:35;7.40;99.90
18191;DHT22;47004;51.366;12.348;2023-05-08T00:29:37;7.50;99.90
18191;DHT22;47004;51.366;12.348;2023-05-08T00:31:40;7.40;99.90
18191;DHT22;47004;51.366;12.348;2023-05-08T00:33:43;7.40;99.90
18191;DHT22;47004;51.366;12.348;2023-05-08T00:35:45;7.40;99.90
18191;DHT22;47004;51.366;12.348;2023-05-08T00:37:47;7.40;99.90
18191;DHT22;47004;51.366;12.348;2023-05-08T00:39:49;7.40;99.90
18191;DHT22;47004;51.366;12.348;2023-05-08T00:41:51;7.40;99.90
18191;DHT22;47004;51.366;12.348;2023-05-08T00:43:53;7.30;99.90
18191;DHT22;47004;51.366;12.348;2023-05-08T00:45:55;7.30;99.90
18191;DHT22;47004;51.366;12.348;2023-05-08T00:47:58;7.30;99.90
18191;DHT22;47004;51.366;12.348;2023-05-08T00:50:02;7.30;99.90
18191;DHT22;47004;51.366;12.348;2023-05-08T00:52:04;7.30;99.90
18191;DHT22;47004;51.366;12.348;2023-05-08T00:54:08;7.20;99.90
18191;DHT22;47004;51.366;12.348;2023-05-08T00:56:12;7.20;99.90
18191;DHT22;47004;51.366;12.348;2023-05-08T00:58:16;7.20;99.90
18191;DHT22;47004;51.366;12.348;2023-05-08T01:00:19;7.20;99.90
18191;DHT22;47004;51.366;12.348;2023-05-08T01:02:21;7.20;99.90
18191;DHT22;47004;51.366;12.348;2023-05-08T01:04:24;7.20;99.90
18191;DHT22;47004;51.366;12.348;2023-05-08T01:06:28;7.10;99.90
18191;DHT22;47004;51.366;12.348;2023-05-08T01:08:30;7.10;99.90
18191;DHT22;47004;51.366;12.348;2023-05-08T01:10:43;7.10;99.90
18191;DHT22;47004;51.366;12.348;2023-05-08T01:12:55;7.10;99.90
18191;DHT22;47004;51.366;12.348;2023-05-08T01:15:05;7.10;99.90
18191;DHT22;47004;51.366;12.348;2023-05-08T01:17:13;7.10;99.90
18191;DHT22;47004;51.366;12.348;2023-05-08T01:19:51;7.00;99.90
18191;DHT22;47004;51.366;12.348;2023-05-08T01:22:11;7.00;99.90
18191;DHT22;47004;51.366;12.348;2023-05-08T01:24:36;7.00;99.90
18191;DHT22;47004;51.366;12.348;2023-05-08T01:27:13;7.00;99.90
18191;DHT22;47004;51.366;12.348;2023-05-08T01:29:42;7.00;99.90
18191;DHT22;47004;51.366;12.348;2023-05-08T01:32:12;6.90;99.90
18191;DHT22;47004;51.366;12.348;2023-05-08T01:34:20;6.90;99.90
18191;DHT22;47004;51.366;12.348;2023-05-08T01:36:28;6.90;99.90
18191;DHT22;47004;51.366;12.348;2023-05-08T01:38:33;6.90;99.90
18191;DHT22;47004;51.366;12.348;2023-05-08T01:40:48;6.80;99.90
18191;DHT22;47004;51.366;12.348;2023-05-08T01:42:57;6.80;99.90
18191;DHT22;47004;51.366;12.348;2023-05-08T01:45:03;6.80;99.90
18191;DHT22;47004;51.366;12.348;2023-05-08T01:47:07;6.80;99.90
18191;DHT22;47004;51.366;12.348;2023-05-08T01:49:19;6.80;99.90
18191;DHT22;47004;51.366;12.348;2023-05-08T01:51:24;6.80;99.90
18191;DHT22;47004;51.366;12.348;2023-05-08T01:53:29;6.80;99.90
18191;DHT22;47004;51.366;12.348;2023-05-08T01:55:35;6.70;99.90
18191;DHT22;47004;51.366;12.348;2023-05-08T01:57:45;6.70;99.90
18191;DHT22;47004;51.366;12.348;2023-05-08T01:59:48;6.70;99.90
18191;DHT22;47004;51.366;12.348;2023-05-08T02:01:54;6.70;99.90
18191;DHT22;47004;51.366;12.348;2023-05-08T02:03:59;6.70;99.90
18191;DHT22;47004;51.366;12.348;2023-05-08T02:06:03;6.60;99.90
18191;DHT22;47004;51.366;12.348;2023-05-08T02:08:08;6.60;99.90
18191;DHT22;47004;51.366;12.348;2023-05-08T02:10:11;6.60;99.90
18191;DHT22;47004;51.366;12.348;2023-05-08T02:12:15;6.60;99.90
18191;DHT22;47004;51.366;12.348;2023-05-08T02:14:19;6.60;99.90
18191;DHT22;47004;51.366;12.348;2023-05-08T02:16:22;6.50;99.90
18191;DHT22;47004;51.366;12.348;2023-05-08T02:18:27;6.50;99.90
18191;DHT22;47004;51.366;12.348;2023-05-08T02:20:31;6.50;99.90
18191;DHT22;47004;51.366;12.348;2023-05-08T02:22:35;6.50;99.90
18191;DHT22;47004;51.366;12.348;2023-05-08T02:24:38;6.40;99.90
18191;DHT22;47004;51.366;12.348;2023-05-08T02:26:41;6.40;99.90
18191;DHT22;47004;51.366;12.348;2023-05-08T02:28:45;6.40;99.90
18191;DHT22;47004;51.366;12.348;2023-05-08T02:30:48;6.40;99.90
18191;DHT22;47004;51.366;12.348;2023-05-08T02:32:52;6.30;99.90
18191;DHT22;47004;51.366;12.348;2023-05-08T02:34:56;6.40;99.90
18191;DHT22;47004;51.366;12.348;2023-05-08T02:36:58;6.30;99.90
18191;DHT22;47004;51.366;12.348;2023-05-08T02:39:02;6.30;99.90
18191;DHT22;47004;51.366;12.348;2023-05-08T02:41:07;6.30;99.90
18191;DHT22;47004;51.366;12.348;2023-05-08T02:43:09;6.20;99.90
18191;DHT22;47004;51.366;12.348;2023-05-08T02:45:12;6.30;99.90
18191;DHT22;47004;51.366;12.348;2023-05-08T02:47:20;6.20;99.90
18191;DHT22;47004;51.366;12.348;2023-05-08T02:49:27;6.10;99.90
18191;DHT22;47004;51.366;12.348;2023-05-08T02:51:38;6.20;99.90
18191;DHT22;47004;51.366;12.348;2023-05-08T02:53:47;6.10;99.90
18191;DHT22;47004;51.366;12.348;2023-05-08T02:55:55;6.20;99.90
18191;DHT22;47004;51.366;12.348;2023-05-08T02:58:05;6.10;99.90
18191;DHT22;47004;51.366;12.348;2023-05-08T03:00:13;6.10;99.90
18191;DHT22;47004;51.366;12.348;2023-05-08T03:02:29;6.10;99.90
18191;DHT22;47004;51.366;12.348;2023-05-08T03:04:36;6.00;99.90
18191;DHT22;47004;51.366;12.348;2023-05-08T03:06:44;6.00;99.90
18191;DHT22;47004;51.366;12.348;2023-05-08T03:08:48;6.00;99.90
18191;DHT22;47004;51.366;12.348;2023-05-08T03:10:55;6.00;99.90
18191;DHT22;47004;51.366;12.348;2023-05-08T03:13:00;6.00;99.90
18191;DHT22;47004;51.366;12.348;2023-05-08T03:15:06;6.00;99.90
18191;DHT22;47004;51.366;12.348;2023-05-08T03:17:14;5.90;99.90
18191;DHT22;47004;51.366;12.348;2023-05-08T03:19:20;6.00;99.90
18191;DHT22;47004;51.366;12.348;2023-05-08T03:21:27;5.90;99.90
18191;DHT22;47004;51.366;12.348;2023-05-08T03:23:32;5.90;99.90
18191;DHT22;47004;51.366;12.348;2023-05-08T03:25:35;5.90;99.90
18191;DHT22;47004;51.366;12.348;2023-05-08T03:27:40;5.90;99.90
18191;DHT22;47004;51.366;12.348;2023-05-08T03:29:43;5.90;99.90
18191;DHT22;47004;51.366;12.348;2023-05-08T03:31:46;5.80;99.90
18191;DHT22;47004;51.366;12.348;2023-05-08T03:33:52;5.80;99.90
18191;DHT22;47004;51.366;12.348;2023-05-08T03:35:55;5.80;99.90
18191;DHT22;47004;51.366;12.348;2023-05-08T03:37:58;5.80;99.90
18191;DHT22;47004;51.366;12.348;2023-05-08T03:40:00;5.80;99.90
18191;DHT22;47004;51.366;12.348;2023-05-08T03:42:05;5.80;99.90
18191;DHT22;47004;51.366;12.348;2023-05-08T03:44:09;5.80;99.90
18191;DHT22;47004;51.366;12.348;2023-05-08T03:46:11;5.80;99.90
18191;DHT22;47004;51.366;12.348;2023-05-08T03:48:13;5.70;99.90
18191;DHT22;47004;51.366;12.348;2023-05-08T03:50:15;5.70;99.90
18191;DHT22;47004;51.366;12.348;2023-05-08T03:52:17;5.80;99.90
18191;DHT22;47004;51.366;12.348;2023-05-08T03:54:19;5.70;99.90
18191;DHT22;47004;51.366;12.348;2023-05-08T03:56:24;5.70;99.90
18191;DHT22;47004;51.366;12.348;2023-05-08T03:58:31;5.70;99.90
18191;DHT22;47004;51.366;12.348;2023-05-08T04:00:45;5.70;99.90
18191;DHT22;47004;51.366;12.348;2023-05-08T04:03:08;5.70;99.90
18191;DHT22;47004;51.366;12.348;2023-05-08T04:05:16;5.70;99.90
18191;DHT22;47004;51.366;12.348;2023-05-08T04:07:27;5.70;99.90
18191;DHT22;47004;51.366;12.348;2023-05-08T04:09:36;5.70;99.90
18191;DHT22;47004;51.366;12.348;2023-05-08T04:11:42;5.70;99.90
18191;DHT22;47004;51.366;12.348;2023-05-08T04:13:48;5.70;99.90
18191;DHT22;47004;51.366;12.348;2023-05-08T04:15:56;5.60;99.90
18191;DHT22;47004;51.366;12.348;2023-05-08T04:18:05;5.70;99.90
18191;DHT22;47004;51.366;12.348;2023-05-08T04:20:12;5.60;99.90
18191;DHT22;47004;51.366;12.348;2023-05-08T04:22:17;5.60;99.90
18191;DHT22;47004;51.366;12.348;2023-05-08T04:24:21;5.60;99.90
18191;DHT22;47004;51.366;12.348;2023-05-08T04:26:24;5.60;99.90
18191;DHT22;47004;51.366;12.348;2023-05-08T04:28:26;5.70;99.90
18191;DHT22;47004;51.366;12.348;2023-05-08T04:30:28;5.70;99.90
18191;DHT22;47004;51.366;12.348;2023-05-08T04:32:33;5.70;99.90
18191;DHT22;47004;51.366;12.348;2023-05-08T04:34:36;5.70;99.90
18191;DHT22;47004;51.366;12.348;2023-05-08T04:36:38;5.70;99.90
18191;DHT22;47004;51.366;12.348;2023-05-08T04:38:40;5.70;99.90
18191;DHT22;47004;51.366;12.348;2023-05-08T04:40:42;5.70;99.90
18191;DHT22;47004;51.366;12.348;2023-05-08T04:42:44;5.70;99.90
18191;DHT22;47004;51.366;12.348;2023-05-08T04:44:46;5.70;99.90
18191;DHT22;47004;51.366;12.348;2023-05-08T04:46:48;5.70;99.90
18191;DHT22;47004;51.366;12.348;2023-05-08T04:48:55;5.70;99.90
18191;DHT22;47004;51.366;12.348;2023-05-08T04:50:56;5.70;99.90
18191;DHT22;47004;51.366;12.348;2023-05-08T04:52:58;5.70;99.90
18191;DHT22;47004;51.366;12.348;2023-05-08T04:55:00;5.70;99.90
18191;DHT22;47004;51.366;12.348;2023-05-08T04:57:02;5.70;99.90
18191;DHT22;47004;51.366;12.348;2023-05-08T04:59:04;5.70;99.90
18191;DHT22;47004;51.366;12.348;2023-05-08T05:01:06;5.80;99.90
18191;DHT22;47004;51.366;12.348;2023-05-08T05:03:08;5.80;99.90
18191;DHT22;47004;51.366;12.348;2023-05-08T05:05:12;5.70;99.90
18191;DHT22;47004;51.366;12.348;2023-05-08T05:07:14;5.80;99.90
18191;DHT22;47004;51.366;12.348;2023-05-08T05:09:15;5.80;99.90
18191;DHT22;47004;51.366;12.348;2023-05-08T05:11:17;5.90;99.90
18191;DHT22;47004;51.366;12.348;2023-05-08T05:13:19;5.90;99.90
18191;DHT22;47004;51.366;12.348;2023-05-08T05:15:21;5.90;99.90
18191;DHT22;47004;51.366;12.348;2023-05-08T05:17:23;5.90;99.90
18191;DHT22;47004;51.366;12.348;2023-05-08T05:19:25;5.90;99.90
18191;DHT22;47004;51.366;12.348;2023-05-08T05:21:28;6.00;99.90
18191;DHT22;47004;51.366;12.348;2023-05-08T05:23:30;6.00;99.90
18191;DHT22;47004;51.366;12.348;2023-05-08T05:25:32;6.00;99.90
18191;DHT22;47004;51.366;12.348;2023-05-08T05:27:35;6.00;99.90
18191;DHT22;47004;51.366;12.348;2023-05-08T05:29:37;6.10;99.90
18191;DHT22;47004;51.366;12.348;2023-05-08T05:31:38;6.10;99.90
18191;DHT22;47004;51.366;12.348;2023-05-08T05:33:41;6.10;99.90
18191;DHT22;47004;51.366;12.348;2023-05-08T05:35:43;6.10;99.90
18191;DHT22;47004;51.366;12.348;2023-05-08T05:37:46;6.20;99.90
18191;DHT22;47004;51.366;12.348;2023-05-08T05:39:48;6.20;99.90
18191;DHT22;47004;51.366;12.348;2023-05-08T05:41:50;6.30;99.90
18191;DHT22;47004;51.366;12.348;2023-05-08T05:43:52;6.30;99.90
18191;DHT22;47004;51.366;12.348;2023-05-08T05:45:53;6.30;99.90
18191;DHT22;47004;51.366;12.348;2023-05-08T05:47:56;6.40;99.90
18191;DHT22;47004;51.366;12.348;2023-05-08T05:49:58;6.40;99.90
18191;DHT22;47004;51.366;12.348;2023-05-08T05:52:00;6.40;99.90
18191;DHT22;47004;51.366;12.348;2023-05-08T05:54:04;6.50;99.90
18191;DHT22;47004;51.366;12.348;2023-05-08T05:56:06;6.50;99.90
18191;DHT22;47004;51.366;12.348;2023-05-08T05:58:08;6.60;99.90
18191;DHT22;47004;51.366;12.348;2023-05-08T06:00:10;6.60;99.90
18191;DHT22;47004;51.366;12.348;2023-05-08T06:02:12;6.70;99.90
18191;DHT22;47004;51.366;12.348;2023-05-08T06:04:18;6.70;99.90
18191;DHT22;47004;51.366;12.348;2023-05-08T06:06:19;6.70;99.90
18191;DHT22;47004;51.366;12.348;2023-05-08T06:08:21;6.70;99.90
18191;DHT22;47004;51.366;12.348;2023-05-08T06:10:25;6.80;99.90
18191;DHT22;47004;51.366;12.348;2023-05-08T06:12:27;6.80;99.90
18191;DHT22;47004;51.366;12.348;2023-05-08T06:14:29;6.90;99.90
18191;DHT22;47004;51.366;12.348;2023-05-08T06:16:31;7.00;99.90
18191;DHT22;47004;51.366;12.348;2023-05-08T06:18:32;7.00;99.90
18191;DHT22;47004;51.366;12.348;2023-05-08T06:20:36;7.10;99.90
18191;DHT22;47004;51.366;12.348;2023-05-08T06:22:38;7.10;99.90
18191;DHT22;47004;51.366;12.348;2023-05-08T06:24:41;7.20;99.90
18191;DHT22;47004;51.366;12.348;2023-05-08T06:26:45;7.30;99.90
18191;DHT22;47004;51.366;12.348;2023-05-08T06:28:47;7.40;99.90
18191;DHT22;47004;51.366;12.348;2023-05-08T06:30:51;7.40;99.90
18191;DHT22;47004;51.366;12.348;2023-05-08T06:32:53;7.50;99.90
18191;DHT22;47004;51.366;12.348;2023-05-08T06:34:56;7.50;99.90
18191;DHT22;47004;51.366;12.348;2023-05-08T06:36:58;7.60;99.90
18191;DHT22;47004;51.366;12.348;2023-05-08T06:39:00;7.70;99.90
18191;DHT22;47004;51.366;12.348;2023-05-08T06:41:02;7.80;99.90
18191;DHT22;47004;51.366;12.348;2023-05-08T06:43:05;7.80;99.90
18191;DHT22;47004;51.366;12.348;2023-05-08T06:45:08;7.80;99.90
18191;DHT22;47004;51.366;12.348;2023-05-08T06:47:10;7.90;99.90
18191;DHT22;47004;51.366;12.348;2023-05-08T06:49:12;8.00;99.90
18191;DHT22;47004;51.366;12.348;2023-05-08T06:51:14;8.10;99.90
18191;DHT22;47004;51.366;12.348;2023-05-08T06:53:15;8.10;99.90
18191;DHT22;47004;51.366;12.348;2023-05-08T06:55:17;8.20;99.90
18191;DHT22;47004;51.366;12.348;2023-05-08T06:57:19;8.30;99.90
18191;DHT22;47004;51.366;12.348;2023-05-08T06:59:23;8.40;99.90
18191;DHT22;47004;51.366;12.348;2023-05-08T07:01:24;8.50;99.90
18191;DHT22;47004;51.366;12.348;2023-05-08T07:03:26;8.60;99.90
18191;DHT22;47004;51.366;12.348;2023-05-08T07:05:28;8.60;99.90
18191;DHT22;47004;51.366;12.348;2023-05-08T07:07:30;8.70;99.90
18191;DHT22;47004;51.366;12.348;2023-05-08T07:09:32;8.80;99.90
18191;DHT22;47004;51.366;12.348;2023-05-08T07:11:34;8.90;99.90
18191;DHT22;47004;51.366;12.348;2023-05-08T07:13:36;8.90;99.90
18191;DHT22;47004;51.366;12.348;2023-05-08T07:15:39;9.00;99.90
18191;DHT22;47004;51.366;12.348;2023-05-08T07:17:41;9.10;99.90
18191;DHT22;47004;51.366;12.348;2023-05-08T07:19:43;9.10;99.90
18191;DHT22;47004;51.366;12.348;2023-05-08T07:21:45;9.20;99.90
18191;DHT22;47004;51.366;12.348;2023-05-08T07:23:47;9.30;99.90
18191;DHT22;47004;51.366;12.348;2023-05-08T07:25:51;9.40;99.90
18191;DHT22;47004;51.366;12.348;2023-05-08T07:27:55;9.50;99.90
18191;DHT22;47004;51.366;12.348;2023-05-08T07:29:57;9.50;99.90
18191;DHT22;47004;51.366;12.348;2023-05-08T07:32:07;9.60;99.90
18191;DHT22;47004;51.366;12.348;2023-05-08T07:34:09;9.60;99.90
18191;DHT22;47004;51.366;12.348;2023-05-08T07:36:11;9.70;99.90
18191;DHT22;47004;51.366;12.348;2023-05-08T07:38:13;9.80;99.90
18191;DHT22;47004;51.366;12.348;2023-05-08T07:40:15;9.90;99.90
18191;DHT22;47004;51.366;12.348;2023-05-08T07:42:17;10.00;99.90
18191;DHT22;47004;51.366;12.348;2023-05-08T07:44:19;10.00;99.90
18191;DHT22;47004;51.366;12.348;2023-05-08T07:46:21;10.10;99.90
18191;DHT22;47004;51.366;12.348;2023-05-08T07:48:26;10.20;99.90
18191;DHT22;47004;51.366;12.348;2023-05-08T07:50:28;10.30;99.90
18191;DHT22;47004;51.366;12.348;2023-05-08T07:52:30;10.30;99.90
18191;DHT22;47004;51.366;12.348;2023-05-08T07:54:32;10.40;99.90
18191;DHT22;47004;51.366;12.348;2023-05-08T07:56:34;10.50;99.90
18191;DHT22;47004;51.366;12.348;2023-05-08T07:58:36;10.60;99.90
18191;DHT22;47004;51.366;12.348;2023-05-08T08:00:38;10.70;99.90
18191;DHT22;47004;51.366;12.348;2023-05-08T08:02:41;10.70;99.90
18191;DHT22;47004;51.366;12.348;2023-05-08T08:04:44;10.80;99.90
18191;DHT22;47004;51.366;12.348;2023-05-08T08:06:46;10.90;99.90
18191;DHT22;47004;51.366;12.348;2023-05-08T08:08:48;10.90;99.90
18191;DHT22;47004;51.366;12.348;2023-05-08T08:10:50;11.00;99.90
18191;DHT22;47004;51.366;12.348;2023-05-08T08:12:52;11.10;99.90
18191;DHT22;47004;51.366;12.348;2023-05-08T08:14:54;11.10;99.90
18191;DHT22;47004;51.366;12.348;2023-05-08T08:16:56;11.20;99.90
18191;DHT22;47004;51.366;12.348;2023-05-08T08:18:57;11.20;99.90
18191;DHT22;47004;51.366;12.348;2023-05-08T08:21:04;11.30;99.90
18191;DHT22;47004;51.366;12.348;2023-05-08T08:23:05;11.40;99.90
18191;DHT22;47004;51.366;12.348;2023-05-08T08:25:08;11.40;99.90
18191;DHT22;47004;51.366;12.348;2023-05-08T08:27:10;11.60;99.90
18191;DHT22;47004;51.366;12.348;2023-05-08T08:29:12;11.60;99.90
18191;DHT22;47004;51.366;12.348;2023-05-08T08:31:15;11.70;99.90
18191;DHT22;47004;51.366;12.348;2023-05-08T08:33:19;11.80;99.90
18191;DHT22;47004;51.366;12.348;2023-05-08T08:35:21;11.80;99.90
18191;DHT22;47004;51.366;12.348;2023-05-08T08:37:30;11.90;99.90
18191;DHT22;47004;51.366;12.348;2023-05-08T08:39:32;12.00;99.90
18191;DHT22;47004;51.366;12.348;2023-05-08T08:41:34;12.00;99.90
18191;DHT22;47004;51.366;12.348;2023-05-08T08:43:37;12.10;99.90
18191;DHT22;47004;51.366;12.348;2023-05-08T08:45:42;12.20;99.90
18191;DHT22;47004;51.366;12.348;2023-05-08T08:47:46;12.20;99.90
18191;DHT22;47004;51.366;12.348;2023-05-08T08:49:50;12.30;99.90
18191;DHT22;47004;51.366;12.348;2023-05-08T08:51:57;12.40;99.90
18191;DHT22;47004;51.366;12.348;2023-05-08T08:54:08;12.40;99.90
18191;DHT22;47004;51.366;12.348;2023-05-08T08:56:10;12.50;99.90
18191;DHT22;47004;51.366;12.348;2023-05-08T08:58:17;12.60;99.90
18191;DHT22;47004;51.366;12.348;2023-05-08T09:00:23;12.60;99.90
18191;DHT22;47004;51.366;12.348;2023-05-08T09:02:28;12.70;99.90
18191;DHT22;47004;51.366;12.348;2023-05-08T09:04:31;12.80;99.90
18191;DHT22;47004;51.366;12.348;2023-05-08T09:06:35;12.80;99.90
18191;DHT22;47004;51.366;12.348;2023-05-08T09:08:37;12.90;99.90
18191;DHT22;47004;51.366;12.348;2023-05-08T09:10:42;13.00;99.90
18191;DHT22;47004;51.366;12.348;2023-05-08T09:12:44;13.00;99.90
18191;DHT22;47004;51.366;12.348;2023-05-08T09:14:46;13.10;99.90
18191;DHT22;47004;51.366;12.348;2023-05-08T09:16:48;13.20;99.90
18191;DHT22;47004;51.366;12.348;2023-05-08T09:18:50;13.20;99.90
18191;DHT22;47004;51.366;12.348;2023-05-08T09:20:55;13.30;99.90
18191;DHT22;47004;51.366;12.348;2023-05-08T09:23:00;13.30;99.90
18191;DHT22;47004;51.366;12.348;2023-05-08T09:25:03;13.40;99.90
18191;DHT22;47004;51.366;12.348;2023-05-08T09:27:19;13.50;99.90
18191;DHT22;47004;51.366;12.348;2023-05-08T09:29:22;13.60;99.90
18191;DHT22;47004;51.366;12.348;2023-05-08T09:31:33;13.60;99.90
18191;DHT22;47004;51.366;12.348;2023-05-08T09:33:43;13.80;99.90
18191;DHT22;47004;51.366;12.348;2023-05-08T09:35:45;13.80;99.90
18191;DHT22;47004;51.366;12.348;2023-05-08T09:37:48;13.90;99.90
18191;DHT22;47004;51.366;12.348;2023-05-08T09:39:50;13.90;99.90
18191;DHT22;47004;51.366;12.348;2023-05-08T09:41:59;14.00;99.90
18191;DHT22;47004;51.366;12.348;2023-05-08T09:44:03;14.10;99.90
18191;DHT22;47004;51.366;12.348;2023-05-08T09:46:22;14.20;99.90
18191;DHT22;47004;51.366;12.348;2023-05-08T09:48:36;14.30;99.90
18191;DHT22;47004;51.366;12.348;2023-05-08T09:50:38;14.30;99.90
18191;DHT22;47004;51.366;12.348;2023-05-08T09:52:46;14.40;99.90
18191;DHT22;47004;51.366;12.348;2023-05-08T09:54:48;14.50;99.90
18191;DHT22;47004;51.366;12.348;2023-05-08T09:56:57;14.60;99.90
18191;DHT22;47004;51.366;12.348;2023-05-08T09:58:58;14.70;99.90
18191;DHT22;47004;51.366;12.348;2023-05-08T10:01:02;14.70;99.90
18191;DHT22;47004;51.366;12.348;2023-05-08T10:03:04;14.80;99.90
18191;DHT22;47004;51.366;12.348;2023-05-08T10:05:23;14.80;99.90
18191;DHT22;47004;51.366;12.348;2023-05-08T10:07:29;15.00;99.90
18191;DHT22;47004;51.366;12.348;2023-05-08T10:09:32;15.00;99.90
18191;DHT22;47004;51.366;12.348;2023-05-08T10:11:34;15.00;99.90
18191;DHT22;47004;51.366;12.348;2023-05-08T10:13:36;15.10;99.90
18191;DHT22;47004;51.366;12.348;2023-05-08T10:15:41;15.20;99.90
18191;DHT22;47004;51.366;12.348;2023-05-08T10:17:49;15.30;99.90
18191;DHT22;47004;51.366;12.348;2023-05-08T10:19:57;15.30;99.90
18191;DHT22;47004;51.366;12.348;2023-05-08T10:22:00;15.50;99.90
18191;DHT22;47004;51.366;12.348;2023-05-08T10:24:04;15.60;99.90
18191;DHT22;47004;51.366;12.348;2023-05-08T10:26:10;15.70;99.90
18191;DHT22;47004;51.366;12.348;2023-05-08T10:28:16;15.80;99.90
18191;DHT22;47004;51.366;12.348;2023-05-08T10:30:23;15.90;99.90
18191;DHT22;47004;51.366;12.348;2023-05-08T10:32:25;16.00;99.90
18191;DHT22;47004;51.366;12.348;2023-05-08T10:34:30;16.10;99.90
18191;DHT22;47004;51.366;12.348;2023-05-08T10:36:34;16.20;99.90
18191;DHT22;47004;51.366;12.348;2023-05-08T10:38:38;16.30;99.90
18191;DHT22;47004;51.366;12.348;2023-05-08T10:40:40;16.40;99.90
18191;DHT22;47004;51.366;12.348;2023-05-08T10:42:42;16.40;99.90
18191;DHT22;47004;51.366;12.348;2023-05-08T10:44:45;16.60;99.90
18191;DHT22;47004;51.366;12.348;2023-05-08T10:46:52;16.60;99.90
18191;DHT22;47004;51.366;12.348;2023-05-08T10:48:59;16.70;99.90
18191;DHT22;47004;51.366;12.348;2023-05-08T10:51:11;16.80;99.90
18191;DHT22;47004;51.366;12.348;2023-05-08T10:53:19;16.90;99.90
18191;DHT22;47004;51.366;12.348;2023-05-08T10:55:25;17.10;99.90
18191;DHT22;47004;51.366;12.348;2023-05-08T10:57:29;17.20;99.90
18191;DHT22;47004;51.366;12.348;2023-05-08T10:59:34;17.30;99.90
18191;DHT22;47004;51.366;12.348;2023-05-08T11:01:38;17.50;99.90
18191;DHT22;47004;51.366;12.348;2023-05-08T11:03:44;17.60;99.90
18191;DHT22;47004;51.366;12.348;2023-05-08T11:05:48;17.70;99.90
18191;DHT22;47004;51.366;12.348;2023-05-08T11:07:54;17.90;99.90
18191;DHT22;47004;51.366;12.348;2023-05-08T11:10:06;18.10;99.90
18191;DHT22;47004;51.366;12.348;2023-05-08T11:12:25;18.20;99.90
18191;DHT22;47004;51.366;12.348;2023-05-08T11:14:27;18.40;91.90
18191;DHT22;47004;51.366;12.348;2023-05-08T11:19:18;18.70;94.00
18191;DHT22;47004;51.366;12.348;2023-05-08T11:21:20;18.90;96.00
18191;DHT22;47004;51.366;12.348;2023-05-08T11:23:24;19.00;93.60
18191;DHT22;47004;51.366;12.348;2023-05-08T11:25:41;19.20;78.90
18191;DHT22;47004;51.366;12.348;2023-05-08T11:30:22;19.60;91.20
18191;DHT22;47004;51.366;12.348;2023-05-08T11:35:02;20.00;63.40
18191;DHT22;47004;51.366;12.348;2023-05-08T11:37:11;20.20;60.40
18191;DHT22;47004;51.366;12.348;2023-05-08T11:39:18;20.40;56.00
18191;DHT22;47004;51.366;12.348;2023-05-08T11:41:21;20.60;55.00
18191;DHT22;47004;51.366;12.348;2023-05-08T11:46:05;21.20;55.10
18191;DHT22;47004;51.366;12.348;2023-05-08T11:48:13;21.50;52.60
18191;DHT22;47004;51.366;12.348;2023-05-08T11:50:16;21.80;50.70
18191;DHT22;47004;51.366;12.348;2023-05-08T11:52:18;22.10;48.10
18191;DHT22;47004;51.366;12.348;2023-05-08T11:54:22;22.50;50.20
18191;DHT22;47004;51.366;12.348;2023-05-08T11:56:24;22.80;48.70
18191;DHT22;47004;51.366;12.348;2023-05-08T11:58:26;23.20;43.30
18191;DHT22;47004;51.366;12.348;2023-05-08T12:00:28;23.50;43.60
18191;DHT22;47004;51.366;12.348;2023-05-08T12:02:35;23.90;45.10
18191;DHT22;47004;51.366;12.348;2023-05-08T12:04:45;24.20;39.30
18191;DHT22;47004;51.366;12.348;2023-05-08T12:06:48;24.60;38.90
18191;DHT22;47004;51.366;12.348;2023-05-08T12:08:50;25.00;36.10
18191;DHT22;47004;51.366;12.348;2023-05-08T12:10:55;25.30;35.80
18191;DHT22;47004;51.366;12.348;2023-05-08T12:12:57;25.70;34.30
18191;DHT22;47004;51.366;12.348;2023-05-08T12:14:59;26.10;33.40
18191;DHT22;47004;51.366;12.348;2023-05-08T12:17:01;26.20;32.10
18191;DHT22;47004;51.366;12.348;2023-05-08T12:19:08;26.50;33.30
18191;DHT22;47004;51.366;12.348;2023-05-08T12:21:10;26.60;32.30
18191;DHT22;47004;51.366;12.348;2023-05-08T12:23:12;26.90;31.40
18191;DHT22;47004;51.366;12.348;2023-05-08T12:25:16;27.00;30.70
18191;DHT22;47004;51.366;12.348;2023-05-08T12:27:19;27.40;31.30
18191;DHT22;47004;51.366;12.348;2023-05-08T12:29:21;27.70;30.50
18191;DHT22;47004;51.366;12.348;2023-05-08T12:31:26;28.20;29.20
18191;DHT22;47004;51.366;12.348;2023-05-08T12:33:28;28.80;29.10
18191;DHT22;47004;51.366;12.348;2023-05-08T12:35:31;29.30;27.90
18191;DHT22;47004;51.366;12.348;2023-05-08T12:37:33;29.80;27.60
18191;DHT22;47004;51.366;12.348;2023-05-08T12:39:36;30.30;26.80
18191;DHT22;47004;51.366;12.348;2023-05-08T12:41:45;30.80;26.40
18191;DHT22;47004;51.366;12.348;2023-05-08T12:43:49;31.40;26.00
18191;DHT22;47004;51.366;12.348;2023-05-08T12:45:50;31.90;26.30
18191;DHT22;47004;51.366;12.348;2023-05-08T12:47:56;32.40;25.10
18191;DHT22;47004;51.366;12.348;2023-05-08T12:49:59;32.70;24.70
18191;DHT22;47004;51.366;12.348;2023-05-08T12:52:02;33.20;24.40
18191;DHT22;47004;51.366;12.348;2023-05-08T12:54:04;33.50;24.10
18191;DHT22;47004;51.366;12.348;2023-05-08T12:56:07;33.80;22.90
18191;DHT22;47004;51.366;12.348;2023-05-08T12:58:10;34.00;23.40
18191;DHT22;47004;51.366;12.348;2023-05-08T13:00:16;34.20;22.80
18191;DHT22;47004;51.366;12.348;2023-05-08T13:02:19;34.20;22.50
18191;DHT22;47004;51.366;12.348;2023-05-08T13:04:23;34.20;22.20
18191;DHT22;47004;51.366;12.348;2023-05-08T13:06:25;34.40;22.30
18191;DHT22;47004;51.366;12.348;2023-05-08T13:08:31;34.40;22.20
18191;DHT22;47004;51.366;12.348;2023-05-08T13:10:44;34.50;23.10
18191;DHT22;47004;51.366;12.348;2023-05-08T13:12:46;34.50;22.30